createdAt,value
2022-08-24T00:01:56.165Z,21.60
2022-08-24T00:04:24.449Z,21.60
2022-08-24T00:06:52.620Z,21.60
2022-08-24T00:09:20.656Z,21.60
2022-08-24T00:11:48.761Z,21.60
2022-08-24T00:14:18.192Z,21.60
2022-08-24T00:16:46.399Z,21.60
2022-08-24T00:19:14.713Z,21.60
2022-08-24T00:21:42.736Z,21.50
2022-08-24T00:24:11.421Z,21.50
2022-08-24T00:26:39.709Z,21.50
2022-08-24T00:29:07.953Z,21.50
2022-08-24T00:31:37.373Z,21.50
2022-08-24T00:34:05.805Z,21.50
2022-08-24T00:36:34.040Z,21.50
2022-08-24T00:39:02.480Z,21.50
2022-08-24T00:41:30.984Z,21.50
2022-08-24T00:44:01.486Z,21.50
2022-08-24T00:46:38.867Z,21.40
2022-08-24T00:49:14.056Z,21.50
2022-08-24T00:51:50.890Z,21.50
2022-08-24T00:54:20.341Z,21.40
2022-08-24T00:56:51.967Z,21.40
2022-08-24T00:59:23.991Z,21.40
2022-08-24T01:01:53.372Z,21.40
2022-08-24T01:04:29.762Z,21.40
2022-08-24T01:06:58.873Z,21.40
2022-08-24T01:13:10.678Z,21.40
2022-08-24T01:15:44.032Z,21.40
2022-08-24T01:18:34.366Z,21.40
2022-08-24T01:21:12.899Z,21.40
2022-08-24T01:23:44.636Z,21.40
2022-08-24T01:26:15.090Z,21.40
2022-08-24T01:28:46.758Z,21.40
2022-08-24T01:31:16.701Z,21.40
2022-08-24T01:33:44.766Z,21.40
2022-08-24T01:36:19.638Z,21.40
2022-08-24T01:38:50.280Z,21.40
2022-08-24T01:41:18.332Z,21.40
2022-08-24T01:43:46.745Z,21.40
2022-08-24T01:46:14.782Z,21.40
2022-08-24T01:48:42.862Z,21.40
2022-08-24T01:51:10.984Z,21.40
2022-08-24T01:53:40.033Z,21.40
2022-08-24T01:56:09.500Z,21.40
2022-08-24T01:58:37.494Z,21.40
2022-08-24T02:01:06.352Z,21.40
2022-08-24T02:03:34.413Z,21.40
2022-08-24T02:06:03.282Z,21.40
2022-08-24T02:08:34.411Z,21.40
2022-08-24T02:11:02.559Z,21.40
2022-08-24T02:13:32.127Z,21.40
2022-08-24T02:16:00.931Z,21.40
2022-08-24T02:18:29.026Z,21.40
2022-08-24T02:20:57.601Z,21.40
2022-08-24T02:23:25.626Z,21.40
2022-08-24T02:25:53.617Z,21.30
2022-08-24T02:28:21.690Z,21.30
2022-08-24T02:30:51.184Z,21.30
2022-08-24T02:33:19.258Z,21.30
2022-08-24T02:35:47.251Z,21.30
2022-08-24T02:38:15.252Z,21.30
2022-08-24T02:40:43.669Z,21.30
2022-08-24T02:43:11.740Z,21.30
2022-08-24T02:45:40.852Z,21.30
2022-08-24T02:48:10.538Z,21.30
2022-08-24T02:50:40.835Z,21.30
2022-08-24T02:53:08.902Z,21.30
2022-08-24T02:55:39.345Z,21.30
2022-08-24T02:58:07.397Z,21.30
2022-08-24T03:00:38.464Z,21.30
2022-08-24T03:03:07.665Z,21.30
2022-08-24T03:05:37.418Z,21.30
2022-08-24T03:08:06.489Z,21.20
2022-08-24T03:10:34.685Z,21.30
2022-08-24T03:13:03.549Z,21.20
2022-08-24T03:15:32.022Z,21.20
2022-08-24T03:18:00.106Z,21.20
2022-08-24T03:20:28.350Z,21.20
2022-08-24T03:22:57.746Z,21.20
2022-08-24T03:25:27.964Z,21.20
2022-08-24T03:27:55.961Z,21.20
2022-08-24T03:30:24.775Z,21.20
2022-08-24T03:32:53.138Z,21.20
2022-08-24T03:35:22.308Z,21.20
2022-08-24T03:37:50.554Z,21.20
2022-08-24T03:40:25.538Z,21.20
2022-08-24T03:42:54.279Z,21.20
2022-08-24T03:45:23.413Z,21.20
2022-08-24T03:47:52.034Z,21.20
2022-08-24T03:50:21.221Z,21.20
2022-08-24T03:52:49.445Z,21.20
2022-08-24T03:55:19.211Z,21.10
2022-08-24T03:57:47.249Z,21.10
2022-08-24T04:00:15.797Z,21.10
2022-08-24T04:02:44.371Z,21.10
2022-08-24T04:05:13.334Z,21.10
2022-08-24T04:07:41.348Z,21.10
2022-08-24T04:10:11.341Z,21.10
2022-08-24T04:12:41.071Z,21.10
2022-08-24T04:15:10.059Z,21.10
2022-08-24T04:17:38.062Z,21.10
2022-08-24T04:20:07.463Z,21.10
2022-08-24T04:22:36.348Z,21.10
2022-08-24T04:25:08.839Z,21.10
2022-08-24T04:27:38.510Z,21.10
2022-08-24T04:30:09.824Z,21.10
2022-08-24T04:32:42.538Z,21.10
2022-08-24T04:35:11.306Z,21.10
2022-08-24T04:37:39.306Z,21.10
2022-08-24T04:40:08.601Z,21.10
2022-08-24T04:42:37.347Z,21.10
2022-08-24T04:45:07.616Z,21.10
2022-08-24T04:47:35.634Z,21.10
2022-08-24T04:50:05.717Z,21.10
2022-08-24T04:52:33.750Z,21.10
2022-08-24T04:55:02.287Z,21.10
2022-08-24T04:57:30.342Z,21.10
2022-08-24T04:59:59.186Z,21.10
2022-08-24T05:02:28.880Z,21.10
2022-08-24T05:04:58.399Z,21.10
2022-08-24T05:07:26.787Z,21.10
2022-08-24T05:09:57.507Z,21.20
2022-08-24T05:12:27.218Z,21.20
2022-08-24T05:14:55.517Z,21.20
2022-08-24T05:17:23.516Z,21.20
2022-08-24T05:19:53.005Z,21.30
2022-08-24T05:22:21.341Z,21.20
2022-08-24T05:24:49.386Z,21.20
2022-08-24T05:27:19.132Z,21.30
2022-08-24T05:29:47.539Z,21.30
2022-08-24T05:32:17.680Z,21.30
2022-08-24T05:34:45.685Z,21.40
2022-08-24T05:37:15.131Z,21.40
2022-08-24T05:39:43.204Z,21.40
2022-08-24T05:42:11.280Z,21.50
2022-08-24T05:44:39.301Z,21.50
2022-08-24T05:47:07.441Z,21.50
2022-08-24T05:49:40.791Z,21.60
2022-08-24T05:52:09.517Z,21.60
2022-08-24T05:54:38.926Z,21.70
2022-08-24T05:57:07.137Z,21.70
2022-08-24T05:59:35.341Z,21.70
2022-08-24T06:02:03.658Z,21.80
2022-08-24T06:04:32.574Z,21.80
2022-08-24T06:07:00.621Z,21.90
2022-08-24T06:09:28.669Z,21.90
2022-08-24T06:11:59.499Z,21.90
2022-08-24T06:14:28.057Z,22.00
2022-08-24T06:16:56.399Z,22.00
2022-08-24T06:19:27.454Z,22.10
2022-08-24T06:21:56.576Z,22.10
2022-08-24T06:24:45.328Z,22.10
2022-08-24T06:27:25.443Z,22.10
2022-08-24T06:29:55.862Z,22.10
2022-08-24T06:32:23.959Z,22.10
2022-08-24T06:34:52.300Z,22.20
2022-08-24T06:37:20.842Z,22.20
2022-08-24T06:39:49.170Z,22.30
2022-08-24T06:42:25.602Z,22.30
2022-08-24T06:44:53.806Z,22.30
2022-08-24T06:47:22.134Z,22.30
2022-08-24T06:49:50.293Z,22.30
2022-08-24T06:52:18.422Z,22.30
2022-08-24T06:54:46.463Z,22.30
2022-08-24T06:57:14.516Z,22.40
2022-08-24T06:59:44.765Z,22.40
2022-08-24T07:02:15.840Z,22.50
2022-08-24T07:04:43.852Z,22.50
2022-08-24T07:07:12.005Z,22.50
2022-08-24T07:09:40.353Z,22.50
2022-08-24T07:12:09.109Z,22.50
2022-08-24T07:14:37.157Z,22.50
2022-08-24T07:17:06.721Z,22.60
2022-08-24T07:19:34.762Z,22.70
2022-08-24T07:22:02.748Z,22.70
2022-08-24T07:24:30.814Z,22.70
2022-08-24T07:26:59.084Z,22.80
2022-08-24T07:32:16.578Z,22.90
2022-08-24T07:34:44.649Z,22.90
2022-08-24T07:37:12.858Z,23.00
2022-08-24T07:39:40.947Z,22.90
2022-08-24T07:42:13.775Z,22.90
2022-08-24T07:44:44.451Z,22.90
2022-08-24T07:47:36.914Z,23.00
2022-08-24T07:50:02.174Z,22.90
2022-08-24T07:52:31.260Z,23.00
2022-08-24T07:54:59.745Z,23.10
2022-08-24T07:57:28.038Z,23.10
2022-08-24T07:59:56.202Z,23.20
2022-08-24T08:02:25.015Z,23.20
2022-08-24T08:04:58.166Z,23.30
2022-08-24T08:07:28.545Z,23.40
2022-08-24T08:09:57.686Z,23.60
2022-08-24T08:12:25.717Z,23.60
2022-08-24T08:14:53.745Z,23.70
2022-08-24T08:17:21.799Z,23.70
2022-08-24T08:19:49.914Z,23.80
2022-08-24T08:22:35.888Z,23.80
2022-08-24T08:25:08.026Z,23.90
2022-08-24T08:27:36.805Z,24.10
2022-08-24T08:30:06.408Z,24.10
2022-08-24T08:32:34.588Z,24.10
2022-08-24T08:35:02.804Z,24.30
2022-08-24T08:37:31.204Z,24.30
2022-08-24T08:39:59.624Z,24.40
2022-08-24T08:42:57.424Z,24.40
2022-08-24T08:45:44.887Z,24.30
2022-08-24T08:48:44.254Z,24.50
2022-08-24T08:51:54.049Z,24.50
2022-08-24T08:54:34.946Z,24.70
2022-08-24T08:57:19.950Z,24.80
2022-08-24T09:00:15.728Z,24.90
2022-08-24T09:03:21.673Z,24.90
2022-08-24T09:06:10.283Z,24.90
2022-08-24T09:08:54.184Z,24.90
2022-08-24T09:11:36.398Z,24.90
2022-08-24T09:14:42.642Z,25.00
2022-08-24T09:17:38.664Z,25.00
2022-08-24T09:20:28.961Z,25.00
2022-08-24T09:23:10.665Z,25.10
2022-08-24T09:25:47.422Z,25.10
2022-08-24T09:28:34.508Z,25.00
2022-08-24T09:31:20.168Z,24.90
2022-08-24T09:34:07.167Z,24.90
2022-08-24T09:36:47.735Z,24.90
2022-08-24T09:39:38.454Z,24.90
2022-08-24T09:42:45.877Z,25.00
2022-08-24T09:45:52.456Z,25.20
2022-08-24T09:48:53.578Z,25.60
2022-08-24T09:52:01.340Z,26.00
2022-08-24T09:54:57.091Z,26.20
2022-08-24T09:57:59.534Z,26.30
2022-08-24T10:00:31.316Z,26.50
2022-08-24T10:03:36.346Z,27.00
2022-08-24T10:06:21.565Z,27.40
2022-08-24T10:09:02.788Z,27.50
2022-08-24T10:11:43.814Z,27.40
2022-08-24T10:14:19.885Z,27.30
2022-08-24T10:17:04.914Z,27.30
2022-08-24T10:19:48.836Z,27.50
2022-08-24T10:22:29.226Z,27.60
2022-08-24T10:25:28.194Z,27.60
2022-08-24T10:28:04.352Z,27.60
2022-08-24T10:30:58.475Z,27.60
2022-08-24T10:33:29.562Z,28.00
2022-08-24T10:36:20.857Z,28.20
2022-08-24T10:39:09.097Z,28.80
2022-08-24T10:42:39.482Z,29.10
2022-08-24T10:45:26.345Z,29.20
2022-08-24T10:48:15.090Z,29.30
2022-08-24T10:50:55.933Z,29.70
2022-08-24T10:53:27.300Z,30.20
2022-08-24T10:56:06.525Z,30.50
2022-08-24T10:59:03.457Z,30.60
2022-08-24T11:01:34.636Z,30.80
2022-08-24T11:04:09.635Z,31.00
2022-08-24T11:06:40.203Z,31.30
2022-08-24T11:09:10.886Z,31.30
2022-08-24T11:11:41.494Z,31.10
2022-08-24T11:14:25.293Z,30.90
2022-08-24T11:16:57.520Z,30.70
2022-08-24T11:19:34.979Z,30.60
2022-08-24T11:22:06.121Z,30.40
2022-08-24T11:24:43.560Z,30.30
2022-08-24T11:27:27.067Z,30.10
2022-08-24T11:29:59.295Z,30.00
2022-08-24T11:32:31.098Z,30.00
2022-08-24T11:35:03.449Z,30.00
2022-08-24T11:37:38.989Z,30.00
2022-08-24T11:40:08.879Z,29.90
2022-08-24T11:42:47.177Z,29.90
2022-08-24T11:45:24.534Z,29.90
2022-08-24T11:48:05.432Z,30.30
2022-08-24T11:50:40.550Z,30.60
2022-08-24T11:53:17.905Z,30.70
2022-08-24T11:56:00.097Z,30.70
2022-08-24T11:58:44.397Z,30.70
2022-08-24T12:01:19.847Z,30.70
2022-08-24T12:04:07.740Z,30.70
2022-08-24T12:06:51.054Z,30.80
2022-08-24T12:09:40.602Z,30.80
2022-08-24T12:12:19.952Z,30.70
2022-08-24T12:15:00.293Z,30.60
2022-08-24T12:17:34.977Z,30.60
2022-08-24T12:20:06.567Z,30.50
2022-08-24T12:22:35.047Z,30.60
2022-08-24T12:25:25.881Z,30.70
2022-08-24T12:27:55.246Z,30.70
2022-08-24T12:30:23.850Z,30.70
2022-08-24T12:32:57.935Z,30.80
2022-08-24T12:35:31.058Z,30.80
2022-08-24T12:38:02.909Z,30.80
2022-08-24T12:40:34.223Z,30.90
2022-08-24T12:43:06.696Z,31.00
2022-08-24T12:45:35.520Z,30.90
2022-08-24T12:48:12.561Z,31.00
2022-08-24T12:50:48.861Z,31.10
2022-08-24T12:53:42.750Z,31.30
2022-08-24T12:56:42.149Z,31.40
2022-08-24T12:59:21.217Z,31.40
2022-08-24T13:01:59.206Z,31.20
2022-08-24T13:05:02.878Z,31.10
2022-08-24T13:07:33.677Z,31.10
2022-08-24T13:10:14.565Z,31.40
2022-08-24T13:13:09.355Z,31.40
2022-08-24T13:16:08.032Z,31.50
2022-08-24T13:19:12.645Z,31.60
2022-08-24T13:21:52.568Z,31.50
2022-08-24T13:25:04.756Z,31.30
2022-08-24T13:28:05.792Z,31.20
2022-08-24T13:30:53.568Z,31.20
2022-08-24T13:33:30.280Z,31.10
2022-08-24T13:36:07.585Z,31.10
2022-08-24T13:39:09.095Z,31.00
2022-08-24T13:41:50.565Z,30.90
2022-08-24T13:44:28.144Z,30.80
2022-08-24T13:47:08.631Z,30.80
2022-08-24T13:49:52.423Z,30.60
2022-08-24T13:52:30.233Z,30.60
2022-08-24T13:55:19.282Z,30.40
2022-08-24T13:57:53.047Z,30.20
2022-08-24T14:00:40.488Z,30.10
2022-08-24T14:03:27.469Z,29.90
2022-08-24T14:06:00.389Z,29.90
2022-08-24T14:08:48.626Z,29.90
2022-08-24T14:11:22.226Z,29.80
2022-08-24T14:14:05.322Z,29.90
2022-08-24T14:17:07.315Z,30.00
2022-08-24T14:19:58.543Z,30.00
2022-08-24T14:22:35.635Z,30.10
2022-08-24T14:25:19.853Z,30.10
2022-08-24T14:27:53.374Z,30.10
2022-08-24T14:30:44.846Z,30.00
2022-08-24T14:33:27.302Z,30.10
2022-08-24T14:36:16.541Z,30.00
2022-08-24T14:38:56.794Z,30.10
2022-08-24T14:41:41.386Z,30.10
2022-08-24T14:44:19.841Z,30.10
2022-08-24T14:46:59.849Z,30.20
2022-08-24T14:49:36.527Z,30.10
2022-08-24T14:52:37.003Z,30.20
2022-08-24T14:55:12.884Z,30.20
2022-08-24T14:58:07.920Z,30.20
2022-08-24T15:00:59.807Z,30.30
2022-08-24T15:04:00.955Z,30.30
2022-08-24T15:06:38.515Z,30.30
2022-08-24T15:09:09.654Z,30.30
2022-08-24T15:11:40.438Z,30.30
2022-08-24T15:14:15.187Z,30.30
2022-08-24T15:17:00.154Z,30.30
2022-08-24T15:19:34.898Z,30.30
2022-08-24T15:22:07.339Z,30.30
2022-08-24T15:24:42.930Z,30.30
2022-08-24T15:27:19.886Z,30.40
2022-08-24T15:29:53.408Z,30.40
2022-08-24T15:32:28.300Z,30.40
2022-08-24T15:34:59.232Z,30.40
2022-08-24T15:37:32.813Z,30.50
2022-08-24T15:40:02.405Z,30.50
2022-08-24T15:42:32.832Z,30.50
2022-08-24T15:45:02.935Z,30.60
2022-08-24T15:47:34.601Z,30.60
2022-08-24T15:50:06.394Z,30.50
2022-08-24T15:52:45.773Z,30.50
2022-08-24T15:55:35.423Z,30.40
2022-08-24T15:58:30.750Z,30.40
2022-08-24T16:01:37.221Z,30.40
2022-08-24T16:04:13.850Z,30.20
2022-08-24T16:06:45.228Z,29.40
2022-08-24T16:09:37.544Z,28.80
2022-08-24T16:12:09.944Z,28.00
2022-08-24T16:14:47.302Z,27.50
2022-08-24T16:17:38.621Z,26.40
2022-08-24T16:20:12.899Z,26.00
2022-08-24T16:22:57.068Z,25.80
2022-08-24T16:25:32.118Z,25.60
2022-08-24T16:28:07.666Z,25.70
2022-08-24T16:30:51.162Z,25.80
2022-08-24T16:33:43.647Z,25.80
2022-08-24T16:36:18.540Z,25.70
2022-08-24T16:38:49.249Z,25.70
2022-08-24T16:41:19.503Z,25.70
2022-08-24T16:43:48.027Z,25.70
2022-08-24T16:46:21.034Z,25.60
2022-08-24T16:48:49.197Z,25.40
2022-08-24T16:51:18.624Z,25.40
2022-08-24T16:53:46.633Z,25.40
2022-08-24T16:56:16.821Z,25.40
2022-08-24T16:58:47.310Z,25.30
2022-08-24T17:01:16.372Z,25.30
2022-08-24T17:03:44.744Z,25.20
2022-08-24T17:06:13.215Z,25.10
2022-08-24T17:08:42.866Z,25.00
2022-08-24T17:11:10.929Z,24.80
2022-08-24T17:13:49.449Z,24.70
2022-08-24T17:16:18.745Z,24.60
2022-08-24T17:18:46.851Z,24.60
2022-08-24T17:21:14.903Z,24.50
2022-08-24T17:23:45.022Z,24.50
2022-08-24T17:26:20.424Z,24.40
2022-08-24T17:28:51.640Z,24.40
2022-08-24T17:31:19.757Z,24.30
2022-08-24T17:33:47.853Z,24.30
2022-08-24T17:36:16.766Z,24.30
2022-08-24T17:38:51.736Z,24.20
2022-08-24T17:41:24.068Z,24.20
2022-08-24T17:43:52.357Z,24.10
2022-08-24T17:46:20.995Z,24.10
2022-08-24T17:48:49.849Z,24.00
2022-08-24T17:51:18.401Z,24.00
2022-08-24T17:53:47.790Z,23.90
2022-08-24T17:56:17.690Z,23.90
2022-08-24T17:59:03.486Z,23.90
2022-08-24T18:01:32.359Z,23.90
2022-08-24T18:04:00.444Z,23.80
2022-08-24T18:06:29.342Z,23.80
2022-08-24T18:09:04.855Z,23.80
2022-08-24T18:11:33.367Z,23.70
2022-08-24T18:14:02.240Z,23.70
2022-08-24T18:16:30.369Z,23.70
2022-08-24T18:18:59.691Z,23.60
2022-08-24T18:21:27.858Z,23.50
2022-08-24T18:23:56.103Z,23.50
2022-08-24T18:26:28.485Z,23.40
2022-08-24T18:29:00.250Z,23.30
2022-08-24T18:31:30.401Z,23.30
2022-08-24T18:33:58.485Z,23.20
2022-08-24T18:36:26.530Z,23.10
2022-08-24T18:38:54.541Z,23.10
2022-08-24T18:41:27.472Z,23.10
2022-08-24T18:43:56.927Z,23.00
2022-08-24T18:46:26.001Z,23.00
2022-08-24T18:48:54.067Z,23.00
2022-08-24T18:51:24.017Z,22.90
2022-08-24T18:54:02.306Z,22.90
2022-08-24T18:56:30.411Z,22.90
2022-08-24T18:58:59.855Z,22.80
2022-08-24T19:01:29.512Z,22.80
2022-08-24T19:03:57.978Z,22.80
2022-08-24T19:06:26.128Z,22.80
2022-08-24T19:08:54.281Z,22.80
2022-08-24T19:11:24.868Z,22.80
2022-08-24T19:13:52.882Z,22.80
2022-08-24T19:16:22.644Z,22.70
2022-08-24T19:18:52.063Z,22.70
2022-08-24T19:21:20.600Z,22.60
2022-08-24T19:23:48.795Z,22.60
2022-08-24T19:26:16.862Z,22.60
2022-08-24T19:28:45.218Z,22.40
2022-08-24T19:31:15.030Z,22.30
2022-08-24T19:33:49.683Z,22.40
2022-08-24T19:36:18.158Z,22.40
2022-08-24T19:38:47.493Z,22.30
2022-08-24T19:41:17.643Z,22.30
2022-08-24T19:44:06.441Z,22.20
2022-08-24T19:46:34.615Z,22.20
2022-08-24T19:49:04.181Z,22.20
2022-08-24T19:51:32.612Z,22.10
2022-08-24T19:54:01.338Z,22.10
2022-08-24T19:56:29.403Z,22.10
2022-08-24T19:59:02.844Z,22.10
2022-08-24T20:01:34.651Z,22.00
2022-08-24T20:04:06.305Z,21.90
2022-08-24T20:06:35.492Z,21.80
2022-08-24T20:09:04.729Z,21.80
2022-08-24T20:11:32.817Z,21.80
2022-08-24T20:14:02.511Z,21.80
2022-08-24T20:16:35.241Z,21.70
2022-08-24T20:19:05.218Z,21.70
2022-08-24T20:21:33.413Z,21.70
2022-08-24T20:24:02.410Z,21.80
2022-08-24T20:26:35.724Z,21.80
2022-08-24T20:29:04.605Z,21.80
2022-08-24T20:31:32.854Z,21.80
2022-08-24T20:34:01.041Z,21.80
2022-08-24T20:36:36.273Z,21.70
2022-08-24T20:39:07.600Z,21.60
2022-08-24T20:41:35.657Z,21.60
2022-08-24T20:44:05.257Z,21.60
2022-08-24T20:46:33.358Z,21.60
2022-08-24T20:49:01.546Z,21.60
2022-08-24T20:51:31.018Z,21.60
2022-08-24T20:54:01.398Z,21.50
2022-08-24T20:56:31.935Z,21.50
2022-08-24T20:59:01.781Z,21.50
2022-08-24T21:01:30.073Z,21.60
2022-08-24T21:04:02.766Z,21.50
2022-08-24T21:06:35.079Z,21.40
2022-08-24T21:09:04.842Z,21.40
2022-08-24T21:11:33.359Z,21.40
2022-08-24T21:14:02.404Z,21.40
2022-08-24T21:16:30.609Z,21.40
2022-08-24T21:18:58.700Z,21.40
2022-08-24T21:21:27.877Z,21.30
2022-08-24T21:23:57.289Z,21.40
2022-08-24T21:26:28.359Z,21.30
2022-08-24T21:28:58.066Z,21.30
2022-08-24T21:31:26.459Z,21.30
2022-08-24T21:34:12.915Z,21.30
2022-08-24T21:36:41.936Z,21.30
2022-08-24T21:39:11.429Z,21.30
2022-08-24T21:41:39.566Z,21.30
2022-08-24T21:44:07.726Z,21.30
2022-08-24T21:46:38.471Z,21.30
2022-08-24T21:49:07.047Z,21.20
2022-08-24T21:51:41.719Z,21.20
2022-08-24T21:54:11.338Z,21.20
2022-08-24T21:56:41.965Z,21.20
2022-08-24T21:59:10.394Z,21.20
2022-08-24T22:01:38.712Z,21.20
2022-08-24T22:04:07.995Z,21.10
2022-08-24T22:06:42.298Z,21.20
2022-08-24T22:09:11.859Z,21.10
2022-08-24T22:11:39.923Z,21.10
2022-08-24T22:14:08.023Z,21.10
2022-08-24T22:16:36.873Z,21.10
2022-08-24T22:19:05.980Z,21.10
2022-08-24T22:21:36.111Z,21.10
2022-08-24T22:24:04.972Z,21.00
2022-08-24T22:26:35.181Z,21.10
2022-08-24T22:29:05.004Z,21.00
2022-08-24T22:31:36.236Z,21.00
2022-08-24T22:34:07.519Z,21.00
2022-08-24T22:36:35.925Z,21.00
2022-08-24T22:39:05.425Z,21.00
2022-08-24T22:41:34.981Z,20.90
2022-08-24T22:44:21.547Z,20.90
2022-08-24T22:46:52.068Z,20.90
2022-08-24T22:49:22.557Z,20.90
2022-08-24T22:51:51.149Z,20.90
2022-08-24T22:54:19.963Z,20.80
2022-08-24T22:56:51.781Z,20.80
2022-08-24T22:59:22.305Z,20.80
2022-08-24T23:01:51.949Z,20.80
2022-08-24T23:04:23.420Z,20.80
2022-08-24T23:06:51.831Z,20.80
2022-08-24T23:09:19.904Z,20.80
2022-08-24T23:11:49.320Z,20.70
2022-08-24T23:14:17.345Z,20.70
2022-08-24T23:16:47.872Z,20.70
2022-08-24T23:19:40.649Z,20.70
2022-08-24T23:22:11.595Z,20.70
2022-08-24T23:24:40.554Z,20.70
2022-08-24T23:27:12.283Z,20.60
2022-08-24T23:29:40.983Z,20.70
2022-08-24T23:32:09.197Z,20.60
2022-08-24T23:34:37.555Z,20.60
2022-08-24T23:37:05.885Z,20.60
2022-08-24T23:39:33.989Z,20.60
2022-08-24T23:42:02.024Z,20.60
2022-08-24T23:44:31.660Z,20.50
2022-08-24T23:47:00.067Z,20.50
2022-08-24T23:49:31.526Z,20.50
2022-08-24T23:52:01.281Z,20.50
2022-08-24T23:54:29.517Z,20.50
2022-08-24T23:56:57.641Z,20.40
2022-08-24T23:59:29.195Z,20.40
